createdAt,value
2019-02-24T00:00:25.568Z,67.50
2019-02-24T00:02:57.037Z,67.50
2019-02-24T00:05:26.691Z,67.50
2019-02-24T00:07:55.974Z,67.80
2019-02-24T00:10:25.254Z,67.60
2019-02-24T00:12:54.537Z,67.20
2019-02-24T00:15:24.114Z,67.10
2019-02-24T00:17:53.394Z,67.10
2019-02-24T00:20:22.657Z,67.50
2019-02-24T00:22:51.950Z,67.50
2019-02-24T00:25:21.237Z,67.40
2019-02-24T00:27:50.517Z,67.60
2019-02-24T00:30:19.780Z,67.40
2019-02-24T00:32:49.066Z,67.20
2019-02-24T00:35:18.332Z,67.20
2019-02-24T00:37:47.622Z,67.20
2019-02-24T00:40:17.964Z,66.60
2019-02-24T00:42:48.336Z,66.80
2019-02-24T00:45:17.605Z,66.60
2019-02-24T00:47:46.933Z,66.20
2019-02-24T00:50:16.219Z,67.00
2019-02-24T00:52:45.502Z,66.80
2019-02-24T00:55:14.786Z,66.40
2019-02-24T00:57:44.074Z,66.20
2019-02-24T01:00:13.595Z,66.00
2019-02-24T01:02:44.108Z,66.00
2019-02-24T01:05:13.717Z,66.00
2019-02-24T01:07:43.007Z,66.30
2019-02-24T01:10:12.274Z,66.20
2019-02-24T01:12:41.838Z,66.30
2019-02-24T01:15:12.100Z,66.10
2019-02-24T01:17:41.664Z,65.90
2019-02-24T01:20:11.265Z,65.70
2019-02-24T01:22:40.861Z,65.80
2019-02-24T01:25:10.470Z,65.80
2019-02-24T01:27:39.988Z,65.40
2019-02-24T01:30:10.893Z,65.80
2019-02-24T01:32:40.425Z,65.20
2019-02-24T01:35:09.765Z,65.30
2019-02-24T01:37:39.044Z,64.90
2019-02-24T01:40:08.858Z,65.20
2019-02-24T01:42:38.142Z,65.00
2019-02-24T01:45:08.366Z,65.10
2019-02-24T01:47:37.648Z,64.90
2019-02-24T01:50:08.961Z,64.40
2019-02-24T01:52:38.237Z,64.80
2019-02-24T01:55:07.821Z,64.30
2019-02-24T01:57:38.459Z,64.50
2019-02-24T02:00:11.139Z,64.20
2019-02-24T02:02:40.433Z,64.10
2019-02-24T02:05:09.776Z,63.60
2019-02-24T02:07:39.338Z,64.20
2019-02-24T02:10:08.673Z,63.80
2019-02-24T02:12:38.255Z,64.30
2019-02-24T02:15:08.103Z,64.20
2019-02-24T02:17:37.385Z,64.40
2019-02-24T02:20:08.793Z,64.30
2019-02-24T02:22:38.358Z,64.00
2019-02-24T02:25:08.770Z,64.40
2019-02-24T02:27:38.053Z,64.00
2019-02-24T02:30:09.985Z,63.90
2019-02-24T02:32:40.641Z,64.30
2019-02-24T02:35:09.927Z,64.50
2019-02-24T02:37:39.198Z,64.20
2019-02-24T02:40:08.854Z,64.40
2019-02-24T02:42:38.162Z,64.40
2019-02-24T02:45:08.898Z,63.50
2019-02-24T02:47:38.500Z,64.10
2019-02-24T02:50:07.785Z,64.10
2019-02-24T02:52:37.309Z,64.10
2019-02-24T02:55:07.021Z,64.30
2019-02-24T02:57:36.361Z,63.60
2019-02-24T03:00:12.078Z,63.50
2019-02-24T03:02:42.603Z,63.90
2019-02-24T03:05:11.878Z,63.90
2019-02-24T03:07:42.785Z,63.80
2019-02-24T03:10:12.065Z,63.60
2019-02-24T03:12:41.339Z,63.80
2019-02-24T03:15:10.622Z,63.60
2019-02-24T03:17:39.886Z,64.00
2019-02-24T03:20:09.174Z,64.20
2019-02-24T03:22:38.456Z,63.90
2019-02-24T03:25:07.737Z,63.60
2019-02-24T03:27:37.001Z,63.60
2019-02-24T03:30:08.817Z,63.50
2019-02-24T03:32:38.426Z,64.00
2019-02-24T03:35:07.681Z,63.60
2019-02-24T03:37:37.021Z,63.60
2019-02-24T03:40:07.395Z,63.50
2019-02-24T03:42:36.657Z,63.30
2019-02-24T03:45:09.353Z,63.30
2019-02-24T03:47:38.624Z,63.40
2019-02-24T03:50:08.672Z,63.90
2019-02-24T03:52:38.923Z,63.50
2019-02-24T03:55:08.197Z,64.10
2019-02-24T03:57:37.535Z,63.30
2019-02-24T04:00:08.054Z,63.10
2019-02-24T04:02:37.321Z,63.20
2019-02-24T04:05:06.672Z,62.80
2019-02-24T04:07:35.942Z,63.10
2019-02-24T04:10:06.666Z,63.00
2019-02-24T04:12:36.330Z,62.80
2019-02-24T04:15:06.186Z,63.10
2019-02-24T04:17:35.453Z,62.50
2019-02-24T04:20:05.347Z,62.50
2019-02-24T04:22:34.613Z,62.40
2019-02-24T04:25:03.954Z,62.40
2019-02-24T04:27:33.230Z,62.40
2019-02-24T04:30:04.046Z,62.20
2019-02-24T04:32:33.624Z,62.20
2019-02-24T04:35:02.909Z,62.50
2019-02-24T04:37:32.176Z,62.80
2019-02-24T04:40:01.480Z,62.30
2019-02-24T04:42:30.741Z,62.40
2019-02-24T04:45:00.030Z,62.70
2019-02-24T04:47:29.297Z,62.40
2019-02-24T04:49:58.914Z,62.20
2019-02-24T04:52:28.523Z,62.20
2019-02-24T04:54:58.136Z,62.40
2019-02-24T04:57:27.413Z,61.80
2019-02-24T04:59:57.053Z,61.70
2019-02-24T05:02:26.317Z,61.50
2019-02-24T05:04:55.594Z,61.80
2019-02-24T05:07:24.871Z,61.50
2019-02-24T05:09:54.163Z,61.80
2019-02-24T05:12:23.438Z,62.50
2019-02-24T05:14:52.719Z,62.10
2019-02-24T05:17:22.246Z,62.00
2019-02-24T05:19:51.522Z,62.60
2019-02-24T05:22:21.066Z,62.80
2019-02-24T05:24:50.345Z,62.30
2019-02-24T05:27:19.628Z,62.30
2019-02-24T05:29:49.153Z,62.50
2019-02-24T05:32:18.666Z,61.80
2019-02-24T05:34:47.942Z,61.30
2019-02-24T05:37:17.483Z,61.60
2019-02-24T05:39:47.098Z,61.40
2019-02-24T05:42:16.603Z,60.80
2019-02-24T05:44:45.886Z,61.70
2019-02-24T05:47:15.163Z,63.50
2019-02-24T05:49:44.432Z,63.50
2019-02-24T05:52:13.710Z,63.30
2019-02-24T05:54:42.985Z,62.50
2019-02-24T05:57:12.260Z,60.70
2019-02-24T05:59:41.530Z,60.70
2019-02-24T06:02:10.805Z,61.60
2019-02-24T06:04:40.073Z,62.00
2019-02-24T06:07:09.602Z,61.70
2019-02-24T06:09:39.926Z,61.50
2019-02-24T06:12:09.525Z,60.90
2019-02-24T06:14:38.793Z,59.90
2019-02-24T06:17:08.057Z,59.50
2019-02-24T06:19:37.639Z,59.00
2019-02-24T06:22:07.141Z,59.00
2019-02-24T06:24:36.417Z,58.80
2019-02-24T06:27:05.695Z,58.60
2019-02-24T06:29:34.984Z,58.30
2019-02-24T06:32:04.250Z,58.10
2019-02-24T06:34:33.573Z,58.50
2019-02-24T06:37:03.158Z,59.10
2019-02-24T06:39:32.417Z,60.00
2019-02-24T06:42:01.688Z,60.70
2019-02-24T06:44:30.968Z,60.30
2019-02-24T06:47:00.240Z,59.50
2019-02-24T06:49:29.511Z,59.00
2019-02-24T06:51:58.777Z,58.80
2019-02-24T06:54:29.377Z,58.70
2019-02-24T06:56:58.663Z,59.30
2019-02-24T06:59:27.921Z,60.20
2019-02-24T07:01:57.217Z,60.10
2019-02-24T07:04:26.464Z,60.00
2019-02-24T07:06:55.746Z,60.70
2019-02-24T07:09:25.010Z,59.90
2019-02-24T07:11:54.301Z,59.00
2019-02-24T07:14:23.562Z,57.80
2019-02-24T07:16:52.854Z,57.20
2019-02-24T07:19:22.125Z,57.50
2019-02-24T07:21:51.408Z,57.70
2019-02-24T07:24:21.745Z,57.40
2019-02-24T07:26:51.046Z,57.10
2019-02-24T07:29:20.617Z,56.70
2019-02-24T07:31:50.225Z,56.90
2019-02-24T07:34:19.485Z,56.40
2019-02-24T07:36:48.764Z,56.30
2019-02-24T07:39:18.033Z,55.80
2019-02-24T07:41:47.362Z,55.90
2019-02-24T07:44:16.898Z,56.70
2019-02-24T07:46:46.165Z,56.10
2019-02-24T07:49:15.490Z,55.90
2019-02-24T07:51:45.037Z,55.40
2019-02-24T07:54:14.316Z,55.20
2019-02-24T07:56:43.854Z,55.80
2019-02-24T07:59:13.125Z,54.90
2019-02-24T08:01:42.660Z,55.10
2019-02-24T08:04:12.466Z,54.30
2019-02-24T08:06:41.737Z,54.80
2019-02-24T08:09:11.021Z,54.50
2019-02-24T08:11:40.291Z,54.40
2019-02-24T08:14:09.810Z,54.00
2019-02-24T08:16:39.073Z,53.30
2019-02-24T08:19:09.707Z,53.60
2019-02-24T08:21:39.016Z,54.10
2019-02-24T08:24:08.300Z,53.10
2019-02-24T08:26:37.809Z,53.10
2019-02-24T08:29:07.420Z,53.50
2019-02-24T08:31:36.721Z,54.00
2019-02-24T08:34:06.035Z,52.80
2019-02-24T08:36:35.302Z,53.30
2019-02-24T08:39:05.417Z,51.70
2019-02-24T08:41:34.778Z,51.60
2019-02-24T08:44:04.059Z,50.40
2019-02-24T08:46:33.334Z,49.30
2019-02-24T08:49:02.955Z,52.90
2019-02-24T08:51:32.233Z,48.00
2019-02-24T08:54:03.139Z,47.50
2019-02-24T08:56:32.408Z,46.70
2019-02-24T08:59:01.993Z,46.40
2019-02-24T09:01:31.297Z,46.80
2019-02-24T09:04:00.584Z,46.90
2019-02-24T09:06:29.900Z,46.20
2019-02-24T09:09:00.541Z,45.90
2019-02-24T09:11:31.513Z,46.00
2019-02-24T09:14:00.768Z,45.00
2019-02-24T09:16:31.121Z,45.70
2019-02-24T09:19:00.410Z,45.90
2019-02-24T09:21:30.755Z,44.30
2019-02-24T09:24:00.333Z,44.00
2019-02-24T09:26:29.938Z,44.60
2019-02-24T09:28:59.650Z,44.50
2019-02-24T09:31:28.934Z,43.80
2019-02-24T09:33:58.218Z,43.60
2019-02-24T09:36:27.577Z,42.20
2019-02-24T09:38:56.861Z,42.10
2019-02-24T09:41:26.461Z,42.00
2019-02-24T09:43:55.760Z,41.40
2019-02-24T09:46:25.020Z,41.90
2019-02-24T09:48:54.570Z,41.10
2019-02-24T09:51:23.841Z,41.50
2019-02-24T09:53:53.139Z,41.60
2019-02-24T09:56:22.415Z,40.40
2019-02-24T09:58:51.698Z,39.70
2019-02-24T10:01:20.986Z,39.20
2019-02-24T10:03:50.291Z,38.90
2019-02-24T10:06:19.565Z,39.50
2019-02-24T10:08:48.833Z,38.30
2019-02-24T10:11:18.112Z,38.40
2019-02-24T10:13:47.388Z,37.50
2019-02-24T10:16:16.668Z,38.20
2019-02-24T10:18:45.945Z,37.40
2019-02-24T10:21:15.481Z,37.40
2019-02-24T10:23:44.841Z,38.80
2019-02-24T10:26:14.130Z,37.30
2019-02-24T10:28:43.569Z,37.50
2019-02-24T10:31:19.649Z,38.40
2019-02-24T10:33:44.892Z,37.10
2019-02-24T10:36:14.173Z,38.10
2019-02-24T10:38:43.441Z,36.80
2019-02-24T10:41:12.726Z,36.90
2019-02-24T10:43:42.597Z,36.70
2019-02-24T10:46:12.177Z,37.20
2019-02-24T10:48:41.781Z,37.60
2019-02-24T10:51:11.066Z,38.10
2019-02-24T10:53:40.355Z,39.50
2019-02-24T10:56:09.637Z,36.60
2019-02-24T10:58:38.918Z,36.10
2019-02-24T11:01:08.368Z,36.10
2019-02-24T11:03:37.701Z,36.50
2019-02-24T11:06:06.977Z,36.30
2019-02-24T11:08:36.259Z,37.50
2019-02-24T11:11:05.799Z,34.90
2019-02-24T11:13:35.073Z,34.50
2019-02-24T11:16:05.495Z,36.70
2019-02-24T11:18:35.029Z,37.90
2019-02-24T11:21:05.449Z,37.90
2019-02-24T11:23:34.724Z,37.30
2019-02-24T11:26:04.031Z,37.70
2019-02-24T11:28:33.286Z,35.60
2019-02-24T11:31:02.574Z,35.80
2019-02-24T11:33:31.845Z,35.10
2019-02-24T11:36:01.138Z,34.80
2019-02-24T11:38:30.400Z,35.10
2019-02-24T11:40:59.968Z,33.90
2019-02-24T11:43:29.241Z,32.90
2019-02-24T11:45:58.779Z,33.10
2019-02-24T11:48:28.057Z,35.80
2019-02-24T11:50:57.581Z,36.70
2019-02-24T11:53:26.849Z,36.70
2019-02-24T11:55:56.485Z,36.70
2019-02-24T11:58:25.760Z,35.80
2019-02-24T12:00:55.034Z,36.80
2019-02-24T12:03:24.593Z,35.20
2019-02-24T12:05:53.863Z,35.90
2019-02-24T12:08:23.397Z,34.40
2019-02-24T12:10:54.038Z,34.60
2019-02-24T12:13:23.317Z,34.80
2019-02-24T12:15:52.589Z,36.00
2019-02-24T12:18:22.849Z,34.40
2019-02-24T12:20:52.125Z,34.30
2019-02-24T12:23:22.394Z,34.60
2019-02-24T12:25:51.678Z,35.40
2019-02-24T12:28:21.033Z,35.00
2019-02-24T12:30:50.596Z,36.20
2019-02-24T12:33:19.875Z,32.90
2019-02-24T12:35:49.144Z,35.40
2019-02-24T12:38:18.426Z,34.70
2019-02-24T12:40:47.696Z,34.50
2019-02-24T12:43:16.977Z,34.40
2019-02-24T12:45:46.244Z,34.00
2019-02-24T12:48:16.824Z,33.10
2019-02-24T12:50:46.102Z,34.40
2019-02-24T12:53:15.638Z,34.30
2019-02-24T12:55:44.918Z,35.00
2019-02-24T12:58:14.197Z,37.20
2019-02-24T13:00:43.456Z,36.20
2019-02-24T13:03:12.737Z,35.90
2019-02-24T13:05:43.153Z,34.90
2019-02-24T13:08:12.501Z,34.40
2019-02-24T13:10:41.772Z,34.90
2019-02-24T13:13:11.057Z,36.00
2019-02-24T13:15:40.316Z,34.50
2019-02-24T13:18:09.871Z,33.00
2019-02-24T13:20:39.181Z,34.40
2019-02-24T13:23:08.465Z,35.60
2019-02-24T13:25:37.743Z,38.70
2019-02-24T13:28:07.026Z,35.60
2019-02-24T13:30:36.569Z,35.60
2019-02-24T13:33:07.464Z,35.20
2019-02-24T13:35:37.000Z,35.60
2019-02-24T13:38:06.281Z,36.80
2019-02-24T13:40:35.546Z,36.50
2019-02-24T13:43:04.825Z,35.60
2019-02-24T13:45:34.102Z,34.90
2019-02-24T13:48:03.381Z,36.30
2019-02-24T13:50:32.644Z,36.00
2019-02-24T13:53:02.228Z,34.80
2019-02-24T13:55:31.835Z,34.80
2019-02-24T13:58:01.122Z,34.90
2019-02-24T14:00:31.529Z,36.70
2019-02-24T14:03:00.821Z,35.60
2019-02-24T14:05:30.088Z,35.60
2019-02-24T14:07:59.365Z,36.80
2019-02-24T14:10:28.644Z,35.40
2019-02-24T14:12:59.010Z,36.00
2019-02-24T14:15:28.604Z,35.30
2019-02-24T14:17:58.947Z,34.60
2019-02-24T14:20:28.221Z,35.20
2019-02-24T14:22:57.489Z,35.50
2019-02-24T14:25:26.838Z,35.00
2019-02-24T14:27:56.125Z,35.70
2019-02-24T14:30:25.398Z,34.50
2019-02-24T14:32:54.674Z,35.00
2019-02-24T14:35:25.922Z,36.00
2019-02-24T14:37:55.185Z,35.80
2019-02-24T14:40:24.468Z,37.00
2019-02-24T14:42:53.743Z,35.40
2019-02-24T14:45:24.162Z,34.50
2019-02-24T14:47:53.804Z,36.50
2019-02-24T14:50:23.414Z,35.60
2019-02-24T14:52:52.681Z,35.80
2019-02-24T14:55:22.223Z,36.00
2019-02-24T14:57:51.489Z,37.50
2019-02-24T15:00:22.758Z,35.80
2019-02-24T15:02:52.020Z,36.00
2019-02-24T15:05:21.535Z,36.40
2019-02-24T15:07:50.811Z,36.00
2019-02-24T15:10:24.146Z,35.90
2019-02-24T15:12:53.577Z,35.90
2019-02-24T15:15:32.866Z,36.90
2019-02-24T15:18:01.830Z,36.60
2019-02-24T15:20:31.096Z,36.50
2019-02-24T15:23:00.377Z,37.10
2019-02-24T15:25:29.914Z,36.90
2019-02-24T15:27:59.188Z,38.00
2019-02-24T15:30:34.362Z,37.70
2019-02-24T15:33:03.811Z,37.30
2019-02-24T15:35:33.089Z,36.90
2019-02-24T15:38:02.356Z,36.80
2019-02-24T15:40:31.634Z,36.90
2019-02-24T15:43:00.909Z,36.80
2019-02-24T15:45:30.232Z,36.80
2019-02-24T15:48:00.370Z,37.10
2019-02-24T15:50:30.732Z,37.40
2019-02-24T15:52:59.991Z,36.90
2019-02-24T15:55:29.606Z,38.10
2019-02-24T15:57:58.883Z,37.70
2019-02-24T16:00:28.166Z,40.50
2019-02-24T16:03:01.553Z,40.40
2019-02-24T16:05:28.972Z,39.00
2019-02-24T16:07:58.573Z,39.50
2019-02-24T16:10:27.844Z,38.90
2019-02-24T16:12:57.384Z,39.20
2019-02-24T16:15:27.997Z,41.20
2019-02-24T16:17:57.266Z,39.50
2019-02-24T16:20:29.073Z,39.90
2019-02-24T16:22:58.359Z,40.00
2019-02-24T16:25:27.712Z,44.70
2019-02-24T16:27:57.282Z,45.20
2019-02-24T16:30:28.991Z,46.70
2019-02-24T16:32:58.283Z,47.30
2019-02-24T16:35:27.644Z,47.00
2019-02-24T16:37:56.989Z,47.60
2019-02-24T16:40:29.633Z,49.20
2019-02-24T16:42:58.965Z,49.10
2019-02-24T16:45:28.246Z,50.40
2019-02-24T16:47:57.583Z,49.60
2019-02-24T16:50:27.829Z,50.30
2019-02-24T16:52:57.105Z,52.60
2019-02-24T16:55:26.376Z,52.30
2019-02-24T16:57:55.680Z,50.70
2019-02-24T17:00:26.372Z,52.70
2019-02-24T17:02:55.670Z,51.90
2019-02-24T17:05:25.296Z,52.70
2019-02-24T17:07:54.905Z,55.40
2019-02-24T17:10:25.670Z,54.80
2019-02-24T17:12:55.005Z,55.00
2019-02-24T17:15:24.280Z,56.40
2019-02-24T17:17:53.571Z,56.60
2019-02-24T17:20:30.217Z,57.50
2019-02-24T17:22:59.823Z,57.60
2019-02-24T17:25:29.109Z,56.40
2019-02-24T17:27:58.389Z,57.60
2019-02-24T17:30:27.666Z,58.50
2019-02-24T17:32:57.235Z,59.00
2019-02-24T17:35:26.834Z,59.40
2019-02-24T17:37:56.439Z,59.70
2019-02-24T17:40:26.790Z,60.40
2019-02-24T17:42:56.384Z,61.10
2019-02-24T17:45:25.661Z,59.30
2019-02-24T17:47:55.128Z,60.20
2019-02-24T17:50:24.814Z,60.90
2019-02-24T17:52:54.148Z,60.40
2019-02-24T17:55:23.425Z,60.20
2019-02-24T17:57:53.000Z,60.90
2019-02-24T18:00:49.670Z,61.30
2019-02-24T18:03:18.960Z,60.50
2019-02-24T18:05:48.248Z,61.00
2019-02-24T18:08:17.602Z,61.50
2019-02-24T18:10:46.992Z,61.60
2019-02-24T18:13:16.287Z,61.50
2019-02-24T18:15:45.642Z,61.10
2019-02-24T18:18:15.307Z,62.40
2019-02-24T18:20:44.640Z,62.00
2019-02-24T18:23:13.925Z,62.10
2019-02-24T18:25:43.474Z,62.90
2019-02-24T18:28:12.763Z,61.70
2019-02-24T18:30:42.047Z,60.80
2019-02-24T18:33:11.360Z,61.90
2019-02-24T18:35:40.642Z,62.70
2019-02-24T18:38:09.970Z,62.50
2019-02-24T18:40:39.240Z,63.10
2019-02-24T18:43:08.778Z,63.60
2019-02-24T18:45:38.095Z,62.80
2019-02-24T18:48:07.377Z,63.20
2019-02-24T18:50:36.655Z,63.70
2019-02-24T18:53:06.511Z,64.10
2019-02-24T18:55:36.039Z,63.30
2019-02-24T18:58:05.383Z,61.00
2019-02-24T19:00:34.709Z,61.00
2019-02-24T19:03:04.444Z,64.10
2019-02-24T19:05:34.686Z,63.70
2019-02-24T19:08:04.254Z,64.10
2019-02-24T19:10:33.605Z,63.90
2019-02-24T19:13:02.968Z,63.50
2019-02-24T19:15:32.278Z,64.00
2019-02-24T19:18:01.573Z,64.40
2019-02-24T19:20:30.841Z,63.80
2019-02-24T19:23:00.138Z,63.00
2019-02-24T19:25:29.406Z,64.10
2019-02-24T19:27:58.702Z,64.50
2019-02-24T19:30:27.983Z,64.20
2019-02-24T19:32:57.257Z,64.30
2019-02-24T19:35:26.546Z,62.90
2019-02-24T19:37:55.838Z,62.40
2019-02-24T19:40:25.358Z,62.60
2019-02-24T19:42:54.653Z,63.10
2019-02-24T19:45:27.133Z,63.10
2019-02-24T19:47:56.425Z,64.20
2019-02-24T19:50:25.703Z,63.70
2019-02-24T19:52:55.248Z,63.00
2019-02-24T19:55:24.523Z,62.30
2019-02-24T19:57:53.805Z,62.00
2019-02-24T20:00:24.678Z,61.00
2019-02-24T20:02:53.960Z,60.20
2019-02-24T20:05:23.412Z,59.70
2019-02-24T20:07:52.705Z,63.00
2019-02-24T20:10:26.976Z,63.70
2019-02-24T20:12:56.258Z,62.60
2019-02-24T20:15:25.536Z,63.80
2019-02-24T20:17:54.832Z,63.10
2019-02-24T20:20:24.113Z,64.10
2019-02-24T20:22:53.711Z,64.50
2019-02-24T20:25:23.941Z,63.70
2019-02-24T20:27:53.213Z,64.10
2019-02-24T20:30:25.000Z,62.40
2019-02-24T20:32:54.276Z,60.00
2019-02-24T20:35:23.905Z,59.80
2019-02-24T20:37:53.171Z,59.30
2019-02-24T20:40:22.455Z,61.60
2019-02-24T20:42:52.012Z,63.00
2019-02-24T20:45:23.603Z,62.50
2019-02-24T20:47:52.871Z,61.80
2019-02-24T20:50:24.665Z,66.00
2019-02-24T20:52:53.951Z,63.00
2019-02-24T20:55:23.233Z,61.90
2019-02-24T20:57:52.826Z,62.40
2019-02-24T21:00:27.521Z,62.60
2019-02-24T21:02:56.798Z,62.80
2019-02-24T21:05:26.077Z,63.30
2019-02-24T21:07:55.351Z,63.30
2019-02-24T21:10:24.648Z,63.80
2019-02-24T21:12:54.174Z,63.50
2019-02-24T21:15:23.477Z,63.90
2019-02-24T21:17:52.749Z,64.10
2019-02-24T21:20:30.163Z,64.60
2019-02-24T21:22:59.792Z,65.70
2019-02-24T21:25:29.396Z,65.50
2019-02-24T21:27:58.997Z,66.20
2019-02-24T21:30:28.306Z,66.00
2019-02-24T21:32:57.896Z,65.50
2019-02-24T21:35:27.502Z,65.80
2019-02-24T21:37:57.002Z,65.50
2019-02-24T21:40:26.292Z,66.60
2019-02-24T21:42:55.597Z,67.20
2019-02-24T21:45:26.921Z,66.90
2019-02-24T21:47:56.196Z,66.00
2019-02-24T21:50:26.449Z,67.00
2019-02-24T21:52:55.716Z,67.60
2019-02-24T21:55:25.010Z,68.10
2019-02-24T21:57:54.590Z,68.10
2019-02-24T22:00:25.115Z,67.80
2019-02-24T22:02:54.381Z,69.70
2019-02-24T22:05:23.787Z,69.60
2019-02-24T22:07:53.330Z,70.00
2019-02-24T22:10:22.933Z,69.40
2019-02-24T22:12:52.890Z,69.50
2019-02-24T22:15:26.354Z,69.10
2019-02-24T22:17:55.678Z,67.70
2019-02-24T22:20:25.090Z,69.00
2019-02-24T22:22:54.684Z,69.10
2019-02-24T22:25:23.983Z,69.00
2019-02-24T22:27:53.264Z,66.10
2019-02-24T22:30:23.398Z,64.10
2019-02-24T22:32:52.674Z,61.90
2019-02-24T22:35:21.949Z,62.80
2019-02-24T22:37:51.221Z,62.30
2019-02-24T22:40:20.793Z,61.10
2019-02-24T22:42:50.401Z,61.10
2019-02-24T22:45:20.423Z,63.10
2019-02-24T22:47:50.043Z,61.60
2019-02-24T22:50:19.321Z,60.20
2019-02-24T22:52:48.597Z,58.80
2019-02-24T22:55:19.017Z,58.20
2019-02-24T22:57:48.290Z,58.30
2019-02-24T23:00:52.396Z,58.50
2019-02-24T23:03:31.237Z,57.90
2019-02-24T23:06:00.592Z,57.20
2019-02-24T23:08:30.202Z,57.50
2019-02-24T23:10:59.727Z,57.80
2019-02-24T23:13:29.309Z,57.00
2019-02-24T23:15:58.593Z,57.20
2019-02-24T23:18:27.875Z,57.10
2019-02-24T23:20:57.154Z,55.30
2019-02-24T23:23:26.433Z,55.00
2019-02-24T23:25:55.708Z,55.50
2019-02-24T23:28:25.344Z,55.40
2019-02-24T23:30:55.105Z,55.50
2019-02-24T23:33:24.379Z,56.00
2019-02-24T23:35:53.703Z,55.30
2019-02-24T23:38:23.033Z,54.20
2019-02-24T23:40:52.322Z,54.50
2019-02-24T23:43:21.609Z,55.10
2019-02-24T23:45:50.905Z,54.40
2019-02-24T23:48:20.171Z,54.10
2019-02-24T23:50:49.754Z,53.60
2019-02-24T23:53:19.038Z,54.10
2019-02-24T23:55:48.662Z,54.70
2019-02-24T23:58:17.932Z,54.50
